createdAt,value
2022-08-22T00:02:26.819Z,85.60
2022-08-22T00:02:42.590Z,79.40
2022-08-22T00:02:42.952Z,79.50
2022-08-22T00:02:53.827Z,79.80
2022-08-22T00:03:03.718Z,82.70
2022-08-22T00:03:11.356Z,82.40
2022-08-22T00:03:12.013Z,80.70
2022-08-22T00:05:06.342Z,84.80
2022-08-22T00:07:53.844Z,84.90
2022-08-22T00:10:27.887Z,85.40
2022-08-22T00:13:03.847Z,85.20
2022-08-22T00:15:43.552Z,85.40
2022-08-22T00:18:14.010Z,85.60
2022-08-22T00:20:44.731Z,85.60
2022-08-22T00:23:28.702Z,85.90
2022-08-22T00:26:18.443Z,86.20
2022-08-22T00:29:05.068Z,86.20
2022-08-22T00:31:39.911Z,86.40
2022-08-22T00:34:22.802Z,86.40
2022-08-22T00:37:03.642Z,86.50
2022-08-22T00:39:43.269Z,86.40
2022-08-22T00:42:31.908Z,86.50
2022-08-22T00:45:33.695Z,86.60
2022-08-22T00:48:18.288Z,86.80
2022-08-22T00:51:19.214Z,86.90
2022-08-22T00:54:15.877Z,87.10
2022-08-22T00:57:13.685Z,87.30
2022-08-22T00:59:59.067Z,87.60
2022-08-22T01:02:52.885Z,87.40
2022-08-22T01:05:31.113Z,87.70
2022-08-22T01:08:23.529Z,87.70
2022-08-22T01:11:10.386Z,87.90
2022-08-22T01:14:02.178Z,87.90
2022-08-22T01:16:35.108Z,88.00
2022-08-22T01:19:18.184Z,87.90
2022-08-22T01:22:19.374Z,88.00
2022-08-22T01:25:26.111Z,87.90
2022-08-22T01:28:11.460Z,87.90
2022-08-22T01:31:04.912Z,87.90
2022-08-22T01:33:53.583Z,87.90
2022-08-22T01:36:46.519Z,87.90
2022-08-22T01:39:39.033Z,88.10
2022-08-22T01:42:20.839Z,88.10
2022-08-22T01:44:56.635Z,88.10
2022-08-22T01:47:36.601Z,88.70
2022-08-22T01:50:53.089Z,88.00
2022-08-22T01:53:39.420Z,88.30
2022-08-22T01:56:22.603Z,88.30
2022-08-22T01:59:34.494Z,88.60
2022-08-22T02:02:13.224Z,88.60
2022-08-22T02:04:58.995Z,88.60
2022-08-22T02:07:38.834Z,88.60
2022-08-22T02:10:14.630Z,88.70
2022-08-22T02:12:45.002Z,88.70
2022-08-22T02:15:15.051Z,88.80
2022-08-22T02:18:12.210Z,88.80
2022-08-22T02:20:58.721Z,88.80
2022-08-22T02:23:45.967Z,88.90
2022-08-22T02:26:24.306Z,88.90
2022-08-22T02:29:20.323Z,89.10
2022-08-22T02:32:06.717Z,89.00
2022-08-22T02:34:53.205Z,89.10
2022-08-22T02:37:51.041Z,89.10
2022-08-22T02:40:32.140Z,89.20
2022-08-22T02:43:14.710Z,89.30
2022-08-22T02:45:49.127Z,89.30
2022-08-22T02:48:40.351Z,89.40
2022-08-22T02:51:24.357Z,89.60
2022-08-22T02:54:09.661Z,89.70
2022-08-22T02:56:45.396Z,89.90
2022-08-22T02:59:27.627Z,89.90
2022-08-22T03:01:55.886Z,90.00
2022-08-22T03:04:31.208Z,90.00
2022-08-22T03:07:17.465Z,90.10
2022-08-22T03:10:19.573Z,90.10
2022-08-22T03:13:07.403Z,90.20
2022-08-22T03:15:53.033Z,90.20
2022-08-22T03:18:45.275Z,90.30
2022-08-22T03:21:27.766Z,90.40
2022-08-22T03:24:01.506Z,90.40
2022-08-22T03:26:38.860Z,90.40
2022-08-22T03:29:15.684Z,90.40
2022-08-22T03:32:11.921Z,90.50
2022-08-22T03:34:58.054Z,90.60
2022-08-22T03:37:37.711Z,90.70
2022-08-22T03:40:20.028Z,91.00
2022-08-22T03:42:53.267Z,90.60
2022-08-22T03:45:41.559Z,91.00
2022-08-22T03:48:57.330Z,90.80
2022-08-22T03:52:02.065Z,90.80
2022-08-22T03:54:34.942Z,90.90
2022-08-22T03:57:23.873Z,90.90
2022-08-22T04:00:11.524Z,91.00
2022-08-22T04:03:03.912Z,91.10
2022-08-22T04:05:58.813Z,91.00
2022-08-22T04:09:05.936Z,91.20
2022-08-22T04:12:02.453Z,91.40
2022-08-22T04:15:10.768Z,91.50
2022-08-22T04:17:46.777Z,91.60
2022-08-22T04:20:26.564Z,91.70
2022-08-22T04:23:09.734Z,91.60
2022-08-22T04:25:39.357Z,91.70
2022-08-22T04:28:19.386Z,91.70
2022-08-22T04:31:07.284Z,91.80
2022-08-22T04:33:48.007Z,91.80
2022-08-22T04:36:27.522Z,91.80
2022-08-22T04:38:59.006Z,91.90
2022-08-22T04:41:46.636Z,91.90
2022-08-22T04:44:26.033Z,92.20
2022-08-22T04:47:00.027Z,92.10
2022-08-22T04:49:39.110Z,92.00
2022-08-22T04:52:31.914Z,92.10
2022-08-22T04:55:35.913Z,92.00
2022-08-22T04:58:28.599Z,92.00
2022-08-22T05:01:07.818Z,91.90
2022-08-22T05:03:43.061Z,91.90
2022-08-22T05:06:16.277Z,91.90
2022-08-22T05:08:46.198Z,92.10
2022-08-22T05:11:23.117Z,92.10
2022-08-22T05:13:56.220Z,92.10
2022-08-22T05:16:33.441Z,92.40
2022-08-22T05:19:27.052Z,92.10
2022-08-22T05:21:57.284Z,92.20
2022-08-22T05:24:30.465Z,92.30
2022-08-22T05:27:01.108Z,92.30
2022-08-22T05:29:31.041Z,92.30
2022-08-22T05:32:04.750Z,92.20
2022-08-22T05:34:37.703Z,91.90
2022-08-22T05:37:24.582Z,92.20
2022-08-22T05:39:58.438Z,91.60
2022-08-22T05:42:32.187Z,91.50
2022-08-22T05:45:03.078Z,91.40
2022-08-22T05:47:38.062Z,91.30
2022-08-22T05:50:14.691Z,91.10
2022-08-22T05:53:17.832Z,91.00
2022-08-22T05:55:52.662Z,91.00
2022-08-22T05:58:38.798Z,90.80
2022-08-22T06:01:14.773Z,90.80
2022-08-22T06:04:06.875Z,91.00
2022-08-22T06:06:52.551Z,90.50
2022-08-22T06:09:34.666Z,90.30
2022-08-22T06:12:25.125Z,90.10
2022-08-22T06:15:12.006Z,90.00
2022-08-22T06:18:01.196Z,89.40
2022-08-22T06:20:57.865Z,88.90
2022-08-22T06:23:35.153Z,88.30
2022-08-22T06:26:04.244Z,87.40
2022-08-22T06:28:55.138Z,87.40
2022-08-22T06:31:33.071Z,86.30
2022-08-22T06:34:12.100Z,84.70
2022-08-22T06:36:42.484Z,84.40
2022-08-22T06:39:26.497Z,83.50
2022-08-22T06:42:02.959Z,82.60
2022-08-22T06:44:47.161Z,82.40
2022-08-22T06:47:23.521Z,80.80
2022-08-22T06:49:56.517Z,80.50
2022-08-22T06:52:26.044Z,79.30
2022-08-22T06:55:00.402Z,78.70
2022-08-22T06:57:35.288Z,77.90
2022-08-22T07:00:08.411Z,77.80
2022-08-22T07:02:49.982Z,78.00
2022-08-22T07:05:21.365Z,78.10
2022-08-22T07:07:49.571Z,77.80
2022-08-22T07:10:18.185Z,78.00
2022-08-22T07:12:49.022Z,78.30
2022-08-22T07:15:37.643Z,78.20
2022-08-22T07:18:27.399Z,78.30
2022-08-22T07:20:57.785Z,78.70
2022-08-22T07:23:32.040Z,79.00
2022-08-22T07:26:07.928Z,79.90
2022-08-22T07:29:15.860Z,79.40
2022-08-22T07:31:57.784Z,79.80
2022-08-22T07:34:40.670Z,79.10
2022-08-22T07:37:32.737Z,79.10
2022-08-22T07:40:17.446Z,79.10
2022-08-22T07:42:56.675Z,78.80
2022-08-22T07:45:35.284Z,79.10
2022-08-22T07:48:27.318Z,78.60
2022-08-22T07:51:08.466Z,76.70
2022-08-22T07:54:00.630Z,74.60
2022-08-22T07:56:31.623Z,72.20
2022-08-22T07:59:13.026Z,70.50
2022-08-22T08:01:45.816Z,69.70
2022-08-22T08:04:17.387Z,67.40
2022-08-22T08:06:50.941Z,66.90
2022-08-22T08:09:19.725Z,66.20
2022-08-22T08:11:49.339Z,65.20
2022-08-22T08:14:17.026Z,64.90
2022-08-22T08:17:00.881Z,63.50
2022-08-22T08:19:34.509Z,62.90
2022-08-22T08:22:02.590Z,62.20
2022-08-22T08:24:42.062Z,59.80
2022-08-22T08:27:35.687Z,60.40
2022-08-22T08:30:15.441Z,57.20
2022-08-22T08:32:46.294Z,55.70
2022-08-22T08:35:26.218Z,54.70
2022-08-22T08:38:38.807Z,54.50
2022-08-22T08:41:23.949Z,54.40
2022-08-22T08:44:19.004Z,53.40
2022-08-22T08:46:56.033Z,52.20
2022-08-22T08:49:35.174Z,51.60
2022-08-22T08:52:11.940Z,50.30
2022-08-22T08:54:43.469Z,50.60
2022-08-22T08:57:34.014Z,50.90
2022-08-22T09:00:15.096Z,50.20
2022-08-22T09:02:42.571Z,49.40
2022-08-22T09:05:27.970Z,49.30
2022-08-22T09:08:25.662Z,49.20
2022-08-22T09:11:09.900Z,47.10
2022-08-22T09:13:58.321Z,45.70
2022-08-22T09:16:57.121Z,46.20
2022-08-22T09:19:46.608Z,44.80
2022-08-22T09:22:19.782Z,44.40
2022-08-22T09:25:16.550Z,44.80
2022-08-22T09:28:02.917Z,45.30
2022-08-22T09:30:45.337Z,45.30
2022-08-22T09:33:24.800Z,45.80
2022-08-22T09:36:32.175Z,45.90
2022-08-22T09:39:03.849Z,46.90
2022-08-22T09:41:46.349Z,46.50
2022-08-22T09:44:47.785Z,46.50
2022-08-22T09:47:35.153Z,46.70
2022-08-22T09:50:17.584Z,46.80
2022-08-22T09:53:09.842Z,46.40
2022-08-22T09:55:47.624Z,47.00
2022-08-22T09:58:27.998Z,46.30
2022-08-22T10:00:59.705Z,47.30
2022-08-22T10:03:56.379Z,46.30
2022-08-22T10:06:36.175Z,47.20
2022-08-22T10:09:14.690Z,47.50
2022-08-22T10:11:49.859Z,47.40
2022-08-22T10:14:22.284Z,47.80
2022-08-22T10:17:12.796Z,47.80
2022-08-22T10:19:47.683Z,46.80
2022-08-22T10:22:33.055Z,47.20
2022-08-22T10:25:07.664Z,47.20
2022-08-22T10:27:46.622Z,47.10
2022-08-22T10:30:20.478Z,47.80
2022-08-22T10:32:47.835Z,46.30
2022-08-22T10:35:33.841Z,46.50
2022-08-22T10:38:19.159Z,47.00
2022-08-22T10:41:11.333Z,47.40
2022-08-22T10:44:01.370Z,47.40
2022-08-22T10:46:39.036Z,47.70
2022-08-22T10:49:32.449Z,47.20
2022-08-22T10:52:21.535Z,47.30
2022-08-22T10:54:56.418Z,47.30
2022-08-22T10:57:48.337Z,46.40
2022-08-22T11:00:31.364Z,46.80
2022-08-22T11:03:25.397Z,46.60
2022-08-22T11:06:23.698Z,46.60
2022-08-22T11:09:25.598Z,44.70
2022-08-22T11:12:21.335Z,45.30
2022-08-22T11:15:28.253Z,45.00
2022-08-22T11:18:20.540Z,45.40
2022-08-22T11:20:56.674Z,45.50
2022-08-22T11:23:29.850Z,45.00
2022-08-22T11:26:33.760Z,44.90
2022-08-22T11:29:15.176Z,44.00
2022-08-22T11:32:05.945Z,44.10
2022-08-22T11:34:44.700Z,40.60
2022-08-22T11:37:54.830Z,43.90
2022-08-22T11:40:37.124Z,41.20
2022-08-22T11:43:39.266Z,36.90
2022-08-22T11:46:27.218Z,36.70
2022-08-22T11:49:01.962Z,35.90
2022-08-22T11:52:10.095Z,35.60
2022-08-22T11:54:42.999Z,35.60
2022-08-22T11:57:16.231Z,34.30
2022-08-22T11:59:43.353Z,33.20
2022-08-22T12:02:51.875Z,33.00
2022-08-22T12:05:24.696Z,33.30
2022-08-22T12:08:03.931Z,32.10
2022-08-22T12:10:35.902Z,31.70
2022-08-22T12:13:37.428Z,33.20
2022-08-22T12:16:20.985Z,31.40
2022-08-22T12:19:26.415Z,32.10
2022-08-22T12:22:13.088Z,33.20
2022-08-22T12:25:03.662Z,34.40
2022-08-22T12:28:04.265Z,35.40
2022-08-22T12:30:39.435Z,36.40
2022-08-22T12:33:22.927Z,37.00
2022-08-22T12:35:53.912Z,36.30
2022-08-22T12:38:39.555Z,36.70
2022-08-22T12:49:15.982Z,31.60
2022-08-22T12:52:20.025Z,31.50
2022-08-22T12:54:54.538Z,29.70
2022-08-22T12:57:36.419Z,30.60
2022-08-22T13:00:32.071Z,30.00
2022-08-22T13:03:11.853Z,29.80
2022-08-22T13:05:45.036Z,28.60
2022-08-22T13:08:29.748Z,29.10
2022-08-22T13:11:23.693Z,29.20
2022-08-22T13:13:57.175Z,27.70
2022-08-22T13:16:33.869Z,28.50
2022-08-22T13:19:26.806Z,30.00
2022-08-22T13:22:10.103Z,27.90
2022-08-22T13:24:52.383Z,28.40
2022-08-22T13:27:32.486Z,27.70
2022-08-22T13:30:06.217Z,27.60
2022-08-22T13:32:44.453Z,28.90
2022-08-22T13:35:24.727Z,29.00
2022-08-22T13:37:58.496Z,28.20
2022-08-22T13:40:31.482Z,29.00
2022-08-22T13:43:24.255Z,29.10
2022-08-22T13:46:23.460Z,29.50
2022-08-22T13:49:00.633Z,30.00
2022-08-22T13:51:51.301Z,29.80
2022-08-22T13:54:36.441Z,29.80
2022-08-22T13:57:30.877Z,28.60
2022-08-22T14:00:28.497Z,28.80
2022-08-22T14:03:12.255Z,27.60
2022-08-22T14:05:47.592Z,27.00
2022-08-22T14:08:22.261Z,26.70
2022-08-22T14:11:06.890Z,26.30
2022-08-22T14:13:56.108Z,26.30
2022-08-22T14:16:52.815Z,25.50
2022-08-22T14:19:35.077Z,25.80
2022-08-22T14:22:31.931Z,27.20
2022-08-22T14:25:03.237Z,27.00
2022-08-22T14:27:41.086Z,26.60
2022-08-22T14:30:14.633Z,26.90
2022-08-22T14:33:13.894Z,27.80
2022-08-22T14:35:45.456Z,27.60
2022-08-22T14:38:35.933Z,28.30
2022-08-22T14:41:52.383Z,28.30
2022-08-22T14:44:32.590Z,28.20
2022-08-22T14:47:04.827Z,27.40
2022-08-22T14:49:58.827Z,27.50
2022-08-22T14:52:45.817Z,27.60
2022-08-22T14:55:27.066Z,27.90
2022-08-22T14:58:05.963Z,27.70
2022-08-22T15:00:38.357Z,28.20
2022-08-22T15:03:21.297Z,28.60
2022-08-22T15:05:59.354Z,30.00
2022-08-22T15:08:50.375Z,30.50
2022-08-22T15:11:27.274Z,31.70
2022-08-22T15:14:12.670Z,30.20
2022-08-22T15:16:43.464Z,32.50
2022-08-22T15:19:46.985Z,33.80
2022-08-22T15:22:16.528Z,33.40
2022-08-22T15:25:02.404Z,34.10
2022-08-22T15:27:31.557Z,33.70
2022-08-22T15:30:04.630Z,33.60
2022-08-22T15:32:41.747Z,34.00
2022-08-22T15:35:17.729Z,34.50
2022-08-22T15:38:01.662Z,36.30
2022-08-22T15:40:44.260Z,35.00
2022-08-22T15:43:22.413Z,36.70
2022-08-22T15:46:09.941Z,36.50
2022-08-22T15:49:00.213Z,36.10
2022-08-22T15:51:39.192Z,37.10
2022-08-22T15:54:24.604Z,36.60
2022-08-22T15:56:52.770Z,36.70
2022-08-22T15:59:25.609Z,38.40
2022-08-22T16:01:56.611Z,37.70
2022-08-22T16:04:43.420Z,38.50
2022-08-22T16:07:25.160Z,38.80
2022-08-22T16:09:53.868Z,38.60
2022-08-22T16:12:44.381Z,41.10
2022-08-22T16:15:56.571Z,38.80
2022-08-22T16:18:45.143Z,38.70
2022-08-22T16:21:13.754Z,38.30
2022-08-22T16:23:46.759Z,40.10
2022-08-22T16:26:16.686Z,39.90
2022-08-22T16:28:58.568Z,39.40
2022-08-22T16:31:56.804Z,37.90
2022-08-22T16:34:42.588Z,36.30
2022-08-22T16:37:12.161Z,35.90
2022-08-22T16:39:43.576Z,34.90
2022-08-22T16:42:13.614Z,34.20
2022-08-22T16:45:06.054Z,33.80
2022-08-22T16:47:32.837Z,34.70
2022-08-22T16:50:09.168Z,34.40
2022-08-22T16:52:51.930Z,33.90
2022-08-22T16:55:30.857Z,34.20
2022-08-22T16:58:06.934Z,35.00
2022-08-22T17:00:37.062Z,34.40
2022-08-22T17:03:24.179Z,34.20
2022-08-22T17:06:12.449Z,35.40
2022-08-22T17:08:48.430Z,34.60
2022-08-22T17:11:37.504Z,34.10
2022-08-22T17:14:34.887Z,35.10
2022-08-22T17:17:20.389Z,35.10
2022-08-22T17:20:09.207Z,34.70
2022-08-22T17:22:52.227Z,34.30
2022-08-22T17:25:27.149Z,34.80
2022-08-22T17:28:03.561Z,34.40
2022-08-22T17:30:45.755Z,35.60
2022-08-22T17:33:51.242Z,35.70
2022-08-22T17:36:27.921Z,36.70
2022-08-22T17:39:24.923Z,36.80
2022-08-22T17:42:26.615Z,37.50
2022-08-22T17:45:04.379Z,37.80
2022-08-22T17:47:46.901Z,37.40
2022-08-22T17:50:21.216Z,37.70
2022-08-22T17:52:57.369Z,37.60
2022-08-22T17:55:31.861Z,38.40
2022-08-22T17:58:05.689Z,39.30
2022-08-22T18:00:40.685Z,39.60
2022-08-22T18:03:31.893Z,39.90
2022-08-22T18:06:11.216Z,40.00
2022-08-22T18:09:15.632Z,40.90
2022-08-22T18:11:55.309Z,41.90
2022-08-22T18:14:31.050Z,41.80
2022-08-22T18:17:01.132Z,42.20
2022-08-22T18:19:48.610Z,42.80
2022-08-22T18:22:22.177Z,42.70
2022-08-22T18:25:04.796Z,42.40
2022-08-22T18:27:46.289Z,43.20
2022-08-22T18:30:31.415Z,43.90
2022-08-22T18:33:14.830Z,44.00
2022-08-22T18:36:18.215Z,45.10
2022-08-22T18:38:54.329Z,45.60
2022-08-22T18:41:32.695Z,46.00
2022-08-22T18:44:01.168Z,47.30
2022-08-22T18:46:41.143Z,47.50
2022-08-22T18:49:22.180Z,48.00
2022-08-22T18:52:16.136Z,48.90
2022-08-22T18:55:08.283Z,50.30
2022-08-22T18:57:54.001Z,51.10
2022-08-22T19:00:40.242Z,52.30
2022-08-22T19:03:31.903Z,53.50
2022-08-22T19:06:38.570Z,54.30
2022-08-22T19:09:34.225Z,55.50
2022-08-22T19:12:47.783Z,56.20
2022-08-22T19:15:39.952Z,56.30
2022-08-22T19:18:32.008Z,57.30
2022-08-22T19:21:39.980Z,58.60
2022-08-22T19:24:13.301Z,59.50
2022-08-22T19:26:48.218Z,59.70
2022-08-22T19:29:42.598Z,60.00
2022-08-22T19:32:47.510Z,61.40
2022-08-22T19:35:24.130Z,60.90
2022-08-22T19:37:53.080Z,61.20
2022-08-22T19:40:44.933Z,61.70
2022-08-22T19:43:22.745Z,62.20
2022-08-22T19:45:51.662Z,62.70
2022-08-22T19:48:27.368Z,63.00
2022-08-22T19:51:26.428Z,63.20
2022-08-22T19:54:16.225Z,64.10
2022-08-22T19:56:52.292Z,64.40
2022-08-22T19:59:38.050Z,64.70
2022-08-22T20:02:26.812Z,65.60
2022-08-22T20:05:17.126Z,65.20
2022-08-22T20:07:58.462Z,65.50
2022-08-22T20:10:35.770Z,65.30
2022-08-22T20:13:08.951Z,65.50
2022-08-22T20:16:05.948Z,65.80
2022-08-22T20:19:06.004Z,66.40
2022-08-22T20:22:01.254Z,66.50
2022-08-22T20:25:05.248Z,66.50
2022-08-22T20:27:38.310Z,66.80
2022-08-22T20:30:08.865Z,66.90
2022-08-22T20:32:43.553Z,67.00
2022-08-22T20:35:22.392Z,67.30
2022-08-22T20:38:06.657Z,67.10
2022-08-22T20:40:56.058Z,67.10
2022-08-22T20:44:12.423Z,66.80
2022-08-22T20:46:58.672Z,66.90
2022-08-22T20:49:32.862Z,66.90
2022-08-22T20:52:03.969Z,67.10
2022-08-22T20:54:39.688Z,67.00
2022-08-22T20:57:20.231Z,67.30
2022-08-22T21:00:19.468Z,67.20
2022-08-22T21:03:11.339Z,67.40
2022-08-22T21:05:43.071Z,67.20
2022-08-22T21:08:26.277Z,67.20
2022-08-22T21:11:17.371Z,67.20
2022-08-22T21:13:44.315Z,67.20
2022-08-22T21:16:15.667Z,67.20
2022-08-22T21:18:48.927Z,67.20
2022-08-22T21:21:22.343Z,67.30
2022-08-22T21:23:52.055Z,67.20
2022-08-22T21:26:31.403Z,67.30
2022-08-22T21:29:07.352Z,67.50
2022-08-22T21:31:47.238Z,67.30
2022-08-22T21:34:27.648Z,67.40
2022-08-22T21:36:59.578Z,67.80
2022-08-22T21:39:42.513Z,67.80
2022-08-22T21:42:11.840Z,68.10
2022-08-22T21:44:40.344Z,67.90
2022-08-22T21:47:30.723Z,68.00
2022-08-22T21:50:23.292Z,68.30
2022-08-22T21:52:56.283Z,68.70
2022-08-22T21:55:43.086Z,68.90
2022-08-22T21:58:32.610Z,69.30
2022-08-22T22:01:30.352Z,69.70
2022-08-22T22:03:59.531Z,69.90
2022-08-22T22:06:26.976Z,70.10
2022-08-22T22:08:54.572Z,70.40
2022-08-22T22:11:21.504Z,70.50
2022-08-22T22:13:49.024Z,70.80
2022-08-22T22:16:22.880Z,71.00
2022-08-22T22:18:49.823Z,71.50
2022-08-22T22:21:16.913Z,71.40
2022-08-22T22:23:43.813Z,71.40
2022-08-22T22:26:11.022Z,71.50
2022-08-22T22:28:47.354Z,71.60
2022-08-22T22:31:16.429Z,71.80
2022-08-22T22:33:43.433Z,71.90
2022-08-22T22:36:16.455Z,72.20
2022-08-22T22:38:43.749Z,72.30
2022-08-22T22:41:11.530Z,72.40
2022-08-22T22:43:38.556Z,72.90
2022-08-22T22:46:08.692Z,73.30
2022-08-22T22:48:35.569Z,73.60
2022-08-22T22:51:10.916Z,73.70
2022-08-22T22:53:42.620Z,74.00
2022-08-22T22:56:13.601Z,73.90
2022-08-22T22:58:40.998Z,73.80
2022-08-22T23:01:21.811Z,73.80
2022-08-22T23:03:54.344Z,74.10
2022-08-22T23:06:23.683Z,74.40
2022-08-22T23:08:50.661Z,74.30
2022-08-22T23:11:26.436Z,74.40
2022-08-22T23:13:53.416Z,74.40
2022-08-22T23:16:26.840Z,74.50
2022-08-22T23:18:54.105Z,74.50
2022-08-22T23:21:29.698Z,74.70
2022-08-22T23:23:59.398Z,74.70
2022-08-22T23:26:28.251Z,74.60
2022-08-22T23:28:56.197Z,74.80
2022-08-22T23:31:32.718Z,74.80
2022-08-22T23:34:07.241Z,74.80
2022-08-22T23:36:34.897Z,74.80
2022-08-22T23:39:03.516Z,75.00
2022-08-22T23:41:30.427Z,75.00
2022-08-22T23:43:57.415Z,75.40
2022-08-22T23:46:27.675Z,75.60
2022-08-22T23:48:58.157Z,75.90
2022-08-22T23:51:29.220Z,76.20
2022-08-22T23:53:57.909Z,76.60
2022-08-22T23:57:03.189Z,76.50
2022-08-22T23:59:46.422Z,76.80
